KPWA/PWA METAR and TAF weather

Enter ICAO airport designator
Station Type Date Time Source
KPWA METAR 2021/08/02 01:53 UTC NOAA

KPWA 020153Z 03009KT 7SM CLR 27/18 A3010 RMK AO2 SLP178 T02670178 $


Station Type Date Time Source
KPWA Decoded METAR 2021/08/02 01:53 UTC NOAA

WILEY POST, OK, United States (KPWA) 35-32N 97-39W 397M
Aug 01, 2021 - 09:53 PM EDT / 2021.08.02 0153 UTC
Wind: from the NNE (030 degrees) at 10 MPH (9 KT):0
Visibility: 7 mile(s):0
Sky conditions: clear
Temperature: 80.1 F (26.7 C)
Dew Point: 64.0 F (17.8 C)
Relative Humidity: 58%
Pressure (altimeter): 30.1 in. Hg (1019 hPa)
ob: KPWA 020153Z 03009KT 7SM CLR 27/18 A3010 RMK AO2 SLP178 T02670178
cycle: 2

Station Type Date Time Source
KPWA TAF UTC NOAA

Error!

Example: see airport list